createdAt,value
2019-06-20T00:04:47.824Z,21.20
2019-06-20T00:09:43.611Z,21.10
2019-06-20T00:14:39.387Z,21.20
2019-06-20T00:19:35.232Z,21.20
2019-06-20T00:24:31.158Z,21.10
2019-06-20T00:29:27.265Z,20.90
2019-06-20T00:34:23.012Z,20.70
2019-06-20T00:39:18.805Z,20.90
2019-06-20T00:44:14.513Z,20.60
2019-06-20T00:49:10.285Z,20.60
2019-06-20T00:54:06.273Z,20.70
2019-06-20T00:59:02.340Z,20.70
2019-06-20T01:03:58.214Z,20.70
2019-06-20T01:08:54.068Z,20.60
2019-06-20T01:13:52.730Z,20.60
2019-06-20T01:18:47.372Z,20.50
2019-06-20T01:23:43.131Z,20.30
2019-06-20T01:28:38.858Z,20.30
2019-06-20T01:33:34.706Z,20.30
2019-06-20T01:38:30.598Z,20.30
2019-06-20T01:43:26.364Z,20.20
2019-06-20T01:48:22.248Z,20.20
2019-06-20T01:53:19.304Z,20.40
2019-06-20T01:58:15.056Z,20.40
2019-06-20T02:03:10.774Z,20.10
2019-06-20T02:08:07.685Z,19.80
2019-06-20T02:13:03.682Z,20.00
2019-06-20T02:17:59.542Z,20.00
2019-06-20T02:22:55.353Z,20.00
2019-06-20T02:27:51.223Z,19.90
2019-06-20T02:32:47.152Z,19.90
2019-06-20T02:37:43.158Z,20.00
2019-06-20T02:42:38.880Z,19.90
2019-06-20T02:47:34.653Z,19.70
2019-06-20T02:52:30.758Z,19.60
2019-06-20T02:57:26.601Z,19.50
2019-06-20T03:02:22.366Z,19.50
2019-06-20T03:07:18.142Z,19.50
2019-06-20T03:12:13.969Z,19.40
2019-06-20T03:17:09.761Z,19.50
2019-06-20T03:22:05.493Z,19.70
2019-06-20T03:27:01.248Z,19.60
2019-06-20T03:31:57.053Z,19.30
2019-06-20T03:36:52.880Z,19.40
2019-06-20T03:41:48.679Z,19.30
2019-06-20T03:46:44.513Z,19.30
2019-06-20T03:51:40.315Z,19.20
2019-06-20T03:56:36.124Z,19.40
2019-06-20T04:01:32.464Z,19.20
2019-06-20T04:06:28.224Z,19.20
2019-06-20T04:11:23.980Z,19.40
2019-06-20T04:16:20.750Z,19.40
2019-06-20T04:21:16.649Z,19.30
2019-06-20T04:26:12.480Z,19.30
2019-06-20T04:31:08.207Z,19.30
2019-06-20T04:36:04.011Z,19.40
2019-06-20T04:41:00.106Z,19.40
2019-06-20T04:46:04.433Z,19.30
2019-06-20T04:51:00.149Z,19.30
2019-06-20T04:55:55.920Z,19.20
2019-06-20T05:00:51.852Z,19.10
2019-06-20T05:05:47.824Z,19.10
2019-06-20T05:10:43.923Z,19.20
2019-06-20T05:15:51.952Z,19.40
2019-06-20T05:20:38.756Z,20.20
2019-06-20T05:25:34.963Z,20.80
2019-06-20T05:30:31.529Z,20.80
2019-06-20T05:35:27.317Z,21.10
2019-06-20T05:40:23.253Z,21.50
2019-06-20T05:45:19.473Z,21.80
2019-06-20T05:50:16.634Z,22.30
2019-06-20T05:55:12.672Z,22.70
2019-06-20T06:00:15.489Z,22.50
2019-06-20T06:05:11.407Z,21.90
2019-06-20T06:10:08.849Z,21.50
2019-06-20T06:15:04.777Z,21.40
2019-06-20T06:20:00.566Z,21.70
2019-06-20T06:24:56.662Z,22.00
2019-06-20T06:29:53.439Z,22.10
2019-06-20T06:34:50.641Z,22.10
2019-06-20T06:39:46.943Z,22.00
2019-06-20T06:44:43.206Z,22.00
2019-06-20T06:49:38.956Z,21.90
2019-06-20T06:54:34.917Z,21.60
2019-06-20T06:59:30.780Z,21.30
2019-06-20T07:04:26.560Z,21.40
2019-06-20T07:09:22.425Z,21.50
2019-06-20T07:14:18.234Z,21.40
2019-06-20T07:19:14.115Z,21.50
2019-06-20T07:24:09.885Z,21.80
2019-06-20T07:34:07.961Z,22.20
2019-06-20T07:39:15.416Z,22.50
2019-06-20T07:44:27.636Z,22.40
2019-06-20T07:49:23.487Z,22.20
2019-06-20T07:54:21.665Z,22.40
2019-06-20T07:59:21.786Z,22.80
2019-06-20T08:04:20.852Z,23.50
2019-06-20T08:09:17.212Z,23.80
2019-06-20T08:14:28.484Z,23.30
2019-06-20T08:19:24.374Z,22.60
2019-06-20T08:24:20.327Z,22.10
2019-06-20T08:29:21.130Z,21.70
2019-06-20T08:34:14.100Z,21.60
2019-06-20T08:45:39.259Z,21.90
2019-06-20T08:50:46.575Z,22.20
2019-06-20T08:56:10.710Z,22.10
2019-06-20T09:06:32.912Z,21.70
2019-06-20T09:11:28.784Z,21.60
2019-06-20T09:16:24.890Z,21.40
2019-06-20T09:40:39.847Z,21.90
2019-06-20T09:45:44.886Z,22.00
2019-06-20T09:50:54.503Z,22.00
2019-06-20T09:55:54.188Z,22.10
2019-06-20T10:00:55.025Z,22.00
2019-06-20T10:05:56.694Z,21.80
2019-06-20T10:10:56.724Z,21.60
2019-06-20T10:15:53.653Z,21.50
2019-06-20T10:21:11.352Z,21.60
2019-06-20T10:26:31.678Z,21.50
2019-06-20T10:31:32.127Z,21.30
2019-06-20T10:36:44.820Z,21.10
2019-06-20T10:41:40.234Z,21.00
2019-06-20T10:46:58.594Z,20.80
2019-06-20T10:51:59.393Z,20.70
2019-06-20T10:56:57.478Z,20.60
2019-06-20T11:02:02.127Z,20.60
2019-06-20T11:07:01.440Z,20.50
2019-06-20T11:11:57.268Z,20.40
2019-06-20T11:16:53.309Z,20.30
2019-06-20T11:21:59.776Z,20.40
2019-06-20T11:26:53.720Z,20.60
2019-06-20T11:31:50.591Z,20.50
2019-06-20T11:37:06.907Z,20.60
2019-06-20T11:42:12.669Z,20.50
2019-06-20T11:47:13.436Z,20.40
2019-06-20T11:52:14.333Z,20.40
2019-06-20T11:58:34.181Z,20.30
2019-06-20T12:10:25.021Z,20.10
2019-06-20T12:15:22.678Z,20.10
2019-06-20T12:20:20.788Z,20.10
2019-06-20T12:25:19.602Z,20.20
2019-06-20T12:30:18.152Z,20.30
2019-06-20T12:35:15.244Z,20.60
2019-06-20T12:40:12.090Z,21.00
2019-06-20T12:45:08.371Z,21.40
2019-06-20T12:50:04.453Z,21.70
2019-06-20T12:55:00.548Z,21.90
2019-06-20T13:00:01.667Z,22.10
2019-06-20T13:04:57.436Z,22.20
2019-06-20T13:09:53.254Z,22.00
2019-06-20T13:14:49.606Z,21.80
2019-06-20T13:19:46.509Z,21.70
2019-06-20T13:24:42.760Z,21.70
2019-06-20T13:29:39.163Z,22.10
2019-06-20T13:34:35.434Z,22.40
2019-06-20T13:39:31.420Z,22.70
2019-06-20T13:44:27.324Z,22.50
2019-06-20T13:49:24.537Z,22.40
2019-06-20T13:54:21.678Z,22.20
2019-06-20T13:59:22.809Z,21.90
2019-06-20T14:04:18.771Z,21.90
2019-06-20T14:09:16.846Z,21.90
2019-06-20T14:14:13.924Z,21.90
2019-06-20T14:19:09.988Z,22.20
2019-06-20T14:24:06.532Z,22.40
2019-06-20T14:29:02.630Z,22.50
2019-06-20T14:34:00.351Z,22.40
2019-06-20T14:38:57.977Z,22.00
2019-06-20T14:43:58.346Z,21.70
2019-06-20T14:48:56.940Z,21.70
2019-06-20T14:53:58.070Z,22.00
2019-06-20T14:58:55.432Z,22.20
2019-06-20T15:03:51.744Z,22.20
2019-06-20T15:08:51.017Z,22.00
2019-06-20T15:13:47.681Z,22.00
2019-06-20T15:18:50.147Z,22.10
2019-06-20T15:23:49.546Z,22.10
2019-06-20T15:28:46.236Z,22.00
2019-06-20T15:33:43.567Z,21.80
2019-06-20T15:38:39.583Z,21.70
2019-06-20T15:43:43.046Z,21.40
2019-06-20T15:48:40.928Z,21.10
2019-06-20T15:53:37.715Z,21.20
2019-06-20T15:58:35.719Z,21.40
2019-06-20T16:03:32.874Z,21.40
2019-06-20T16:08:58.809Z,21.30
2019-06-20T16:14:00.932Z,21.30
2019-06-20T16:19:08.121Z,21.30
2019-06-20T16:24:12.644Z,21.30
2019-06-20T16:29:10.721Z,21.40
2019-06-20T16:34:45.947Z,21.30
2019-06-20T16:39:43.385Z,21.10
2019-06-20T16:44:50.154Z,21.10
2019-06-20T16:50:00.707Z,21.20
2019-06-20T16:55:20.022Z,21.20
2019-06-20T17:00:18.387Z,21.20
2019-06-20T17:05:18.034Z,21.10
2019-06-20T17:10:15.772Z,20.90
2019-06-20T17:15:13.305Z,20.80
2019-06-20T17:20:11.294Z,20.80
2019-06-20T17:25:12.565Z,20.60
2019-06-20T17:37:02.982Z,20.40
2019-06-20T17:42:30.483Z,20.40
2019-06-20T17:47:28.219Z,20.50
2019-06-20T17:58:36.569Z,21.00
2019-06-20T18:03:39.634Z,21.00
2019-06-20T18:08:42.442Z,20.90
2019-06-20T18:13:46.647Z,20.80
2019-06-20T18:19:08.601Z,20.60
2019-06-20T18:24:23.889Z,20.30
2019-06-20T18:29:24.062Z,20.10
2019-06-20T18:34:30.483Z,19.90
2019-06-20T18:40:13.038Z,19.80
2019-06-20T18:45:11.006Z,19.70
2019-06-20T18:50:08.151Z,19.60
2019-06-20T18:55:04.880Z,19.60
2019-06-20T19:12:24.515Z,19.30
2019-06-20T19:17:20.333Z,19.30
2019-06-20T19:22:17.834Z,19.20
2019-06-20T19:27:13.767Z,19.20
2019-06-20T19:32:09.760Z,19.10
2019-06-20T19:37:05.683Z,19.00
2019-06-20T19:42:08.195Z,18.90
2019-06-20T19:47:21.047Z,18.70
2019-06-20T19:52:21.283Z,18.60
2019-06-20T19:57:14.395Z,18.30
2019-06-20T20:02:10.830Z,18.30
2019-06-20T20:07:07.366Z,18.20
2019-06-20T20:12:05.241Z,18.30
2019-06-20T20:17:01.392Z,18.30
2019-06-20T20:21:57.322Z,18.40
2019-06-20T20:26:53.299Z,18.40
2019-06-20T20:31:49.724Z,18.40
2019-06-20T20:36:46.205Z,18.40
2019-06-20T20:41:45.961Z,18.50
2019-06-20T20:46:43.561Z,18.50
2019-06-20T20:51:48.873Z,18.40
2019-06-20T20:56:44.889Z,18.20
2019-06-20T21:01:41.216Z,18.00
2019-06-20T21:06:40.553Z,18.00
2019-06-20T21:11:36.845Z,17.90
2019-06-20T21:16:34.156Z,18.00
2019-06-20T21:21:33.957Z,18.10
2019-06-20T21:26:48.352Z,18.00
2019-06-20T21:31:35.212Z,18.00
2019-06-20T21:36:49.950Z,17.90
2019-06-20T21:41:50.334Z,17.90
2019-06-20T21:46:54.207Z,18.00
2019-06-20T21:51:55.744Z,18.00
2019-06-20T21:57:02.919Z,17.80
2019-06-20T22:01:59.425Z,17.50
2019-06-20T22:07:25.164Z,17.50
2019-06-20T22:12:51.772Z,17.70
2019-06-20T22:17:47.946Z,17.60
2019-06-20T22:23:01.206Z,17.70
2019-06-20T22:28:09.155Z,17.60
2019-06-20T22:33:06.192Z,17.30
2019-06-20T22:38:04.721Z,17.30
2019-06-20T22:43:08.545Z,17.40
2019-06-20T22:48:03.872Z,17.40
2019-06-20T22:53:08.744Z,17.40
2019-06-20T22:58:05.145Z,17.40
2019-06-20T23:03:04.778Z,17.40
2019-06-20T23:08:01.747Z,17.40
2019-06-20T23:13:01.414Z,17.50
2019-06-20T23:18:02.281Z,17.50
2019-06-20T23:23:01.252Z,17.50
2019-06-20T23:28:00.188Z,17.50
2019-06-20T23:32:58.838Z,17.40
2019-06-20T23:37:56.234Z,17.30
2019-06-20T23:42:52.665Z,17.30
2019-06-20T23:47:50.559Z,17.20
2019-06-20T23:53:00.198Z,17.20
2019-06-20T23:57:56.199Z,17.20
